Time;durP1;ratioP1;P1;durP2;ratioP2;P2;SDS_P1;SDS_P2;PMS_P1;PMS_P2;Temp;Humidity;BMP_temperature;BMP_pressure;BME280_temperature;BME280_humidity;BME280_pressure;Samples;Min_cycle;Max_cycle;Signal;HPM_P1;HPM_P2
2022/03/21 00:00:20;;;;;;;18.88;11.43;;;;;;;8.10;40.36;101853.94;8605739;33;20411;-73
2022/03/21 00:05:25;;;;;;;17.77;11.10;;;;;;;8.05;40.49;101864.84;8613131;33;20589;-73
2022/03/21 00:10:29;;;;;;;17.90;11.48;;;;;;;8.08;40.20;101855.81;8620008;33;21819;-74
2022/03/21 00:15:32;;;;;;;17.55;11.35;;;;;;;7.98;41.03;101855.38;8611500;33;20147;-73
2022/03/21 00:20:37;;;;;;;17.85;11.88;;;;;;;7.86;41.45;101854.13;8606537;33;20532;-73
2022/03/21 00:25:41;;;;;;;17.17;11.07;;;;;;;7.68;41.79;101858.53;8601521;33;22475;-73
2022/03/21 00:30:45;;;;;;;20.23;10.98;;;;;;;7.63;41.96;101870.38;8597172;33;20143;-71
2022/03/21 00:35:50;;;;;;;19.40;11.50;;;;;;;7.63;41.58;101878.41;8551543;33;20363;-72
2022/03/21 00:40:54;;;;;;;20.50;11.55;;;;;;;7.62;41.52;101869.47;8601351;33;20146;-72
2022/03/21 00:45:58;;;;;;;19.92;11.45;;;;;;;7.59;41.67;101876.78;8600475;33;20437;-72
2022/03/21 00:51:03;;;;;;;18.25;11.18;;;;;;;7.59;41.62;101871.44;8578736;33;20396;-72
2022/03/21 00:56:06;;;;;;;20.35;12.10;;;;;;;7.58;41.74;101873.25;8602466;33;21528;-73
2022/03/21 01:01:10;;;;;;;18.75;11.77;;;;;;;7.56;41.89;101867.09;8529423;33;20975;-73
2022/03/21 01:06:14;;;;;;;19.75;10.95;;;;;;;7.26;42.18;101867.50;8537423;33;20216;-72
2022/03/21 01:11:17;;;;;;;21.08;12.23;;;;;;;7.21;42.67;101866.88;8528915;33;20442;-73
2022/03/21 01:16:20;;;;;;;19.50;11.63;;;;;;;7.18;42.71;101858.94;8524192;33;20426;-73
2022/03/21 01:21:25;;;;;;;19.50;11.48;;;;;;;7.08;42.81;101872.81;8534234;33;20131;-73
2022/03/21 01:26:28;;;;;;;17.88;11.40;;;;;;;7.01;43.05;101875.72;8577323;33;20135;-73
2022/03/21 01:31:31;;;;;;;21.45;12.52;;;;;;;6.89;42.95;101868.22;8603658;33;20702;-73
2022/03/21 01:36:35;;;;;;;19.50;11.48;;;;;;;6.84;43.43;101876.41;8601399;33;20155;-74
2022/03/21 01:41:39;;;;;;;19.17;11.63;;;;;;;6.79;43.30;101886.41;8601468;33;20856;-74
2022/03/21 01:46:42;;;;;;;19.80;12.15;;;;;;;6.75;43.59;101882.13;8602565;33;20878;-72
2022/03/21 01:51:46;;;;;;;17.40;11.63;;;;;;;6.50;43.81;101884.94;8602787;33;20194;-73
2022/03/21 01:56:51;;;;;;;17.38;11.20;;;;;;;6.51;44.22;101872.44;8601959;33;21786;-73
2022/03/21 02:01:54;;;;;;;19.55;11.18;;;;;;;6.50;44.14;101881.38;8599880;33;20135;-73
2022/03/21 02:07:00;;;;;;;19.73;12.13;;;;;;;6.46;44.26;101887.78;8597179;33;20648;-73
2022/03/21 02:12:04;;;;;;;20.55;12.13;;;;;;;6.36;44.31;101885.50;8596743;33;21437;-73
2022/03/21 02:17:10;;;;;;;22.35;11.88;;;;;;;6.11;44.81;101874.00;8595284;33;20527;-73
2022/03/21 02:22:34;;;;;;;20.02;11.13;;;;;;;6.09;44.92;101868.75;8595868;33;20415;-72
2022/03/21 02:27:40;;;;;;;20.73;12.43;;;;;;;6.08;44.71;101877.66;8594512;33;20413;-73
2022/03/21 02:32:43;;;;;;;23.08;12.18;;;;;;;6.06;44.76;101868.88;8596784;33;20155;-73
2022/03/21 02:37:47;;;;;;;16.52;11.20;;;;;;;6.06;44.95;101865.31;8601486;33;20438;-73
2022/03/21 02:42:52;;;;;;;18.00;11.43;;;;;;;5.91;45.43;101866.78;8581232;33;20313;-72
2022/03/21 02:47:55;;;;;;;19.90;12.43;;;;;;;5.86;45.45;101869.59;8566040;33;21306;-73
2022/03/21 02:52:59;;;;;;;17.30;11.05;;;;;;;5.81;45.35;101866.25;8594992;33;20413;-73
2022/03/21 02:58:03;;;;;;;17.65;11.65;;;;;;;5.72;45.46;101872.78;8594491;33;20588;-73
2022/03/21 03:03:06;;;;;;;18.60;10.52;;;;;;;5.64;45.71;101874.88;8600143;33;20412;-73
2022/03/21 03:08:10;;;;;;;20.73;11.95;;;;;;;5.68;45.76;101879.19;8601373;33;20139;-73
2022/03/21 03:13:14;;;;;;;21.13;11.18;;;;;;;5.59;45.73;101871.50;8603757;33;20143;-74
2022/03/21 03:18:17;;;;;;;19.00;11.18;;;;;;;5.63;45.78;101872.28;8604956;33;20429;-73
2022/03/21 03:23:23;;;;;;;20.83;11.50;;;;;;;5.62;45.81;101878.50;8602591;33;20458;-73
2022/03/21 03:28:28;;;;;;;20.95;11.90;;;;;;;5.58;45.44;101883.09;8604447;33;20197;-73
2022/03/21 03:33:49;;;;;;;18.63;11.23;;;;;;;5.63;45.67;101882.94;8589325;33;20549;-73
2022/03/21 03:38:52;;;;;;;20.23;11.68;;;;;;;5.51;45.47;101876.25;8549699;33;20297;-73
2022/03/21 03:43:58;;;;;;;21.85;12.23;;;;;;;5.57;45.69;101878.72;8645340;33;20226;-73
2022/03/21 03:49:01;;;;;;;18.85;11.70;;;;;;;5.53;45.43;101882.41;8536515;33;20477;-73
2022/03/21 03:54:04;;;;;;;16.88;11.35;;;;;;;5.50;45.54;101880.72;8848551;33;20230;-72
2022/03/21 03:59:09;;;;;;;17.67;10.98;;;;;;;5.43;45.94;101879.22;8854950;33;20302;-72
2022/03/21 04:04:12;;;;;;;21.77;11.57;;;;;;;5.28;46.08;101882.41;8855369;33;20352;-72
2022/03/21 04:09:15;;;;;;;19.10;11.32;;;;;;;5.24;46.15;101884.31;8854325;33;20230;-72
2022/03/21 04:14:20;;;;;;;19.70;10.52;;;;;;;5.22;46.32;101893.28;8855257;33;20371;-71
2022/03/21 04:19:23;;;;;;;17.50;10.90;;;;;;;5.12;46.51;101892.72;8853431;33;20271;-73
2022/03/21 04:24:26;;;;;;;17.50;11.43;;;;;;;4.97;46.89;101882.56;8853515;33;20309;-74
2022/03/21 04:29:30;;;;;;;19.98;10.80;;;;;;;4.86;47.24;101885.59;8854833;33;20830;-72
2022/03/21 04:34:33;;;;;;;18.65;11.05;;;;;;;4.98;47.33;101892.28;8788512;33;20301;-72
2022/03/21 04:39:37;;;;;;;18.67;10.52;;;;;;;4.98;47.03;101893.16;8584687;33;20440;-73
2022/03/21 04:44:44;;;;;;;18.60;11.90;;;;;;;4.95;47.22;101901.25;8526496;33;20193;-74
2022/03/21 04:49:47;;;;;;;17.20;11.45;;;;;;;4.89;47.00;101904.13;8526240;33;20391;-74
2022/03/21 04:54:50;;;;;;;18.38;11.65;;;;;;;4.91;46.94;101904.94;8526459;33;20435;-73
2022/03/21 04:59:55;;;;;;;18.10;11.85;;;;;;;4.86;47.24;101912.22;8526027;33;20283;-73
2022/03/21 05:04:58;;;;;;;18.33;11.15;;;;;;;4.75;47.37;101915.22;8526606;33;20468;-72
2022/03/21 05:10:01;;;;;;;20.67;12.30;;;;;;;4.60;47.80;101916.56;8586115;33;20148;-72
2022/03/21 05:15:08;;;;;;;20.67;11.30;;;;;;;4.57;47.93;101910.47;8610274;33;20201;-73
2022/03/21 05:20:15;;;;;;;18.15;11.88;;;;;;;4.55;47.99;101917.63;8532053;33;20694;-72
2022/03/21 05:30:59;;;;;;;18.30;11.63;;;;;;;4.58;48.35;101923.75;8588194;33;20244;-74
2022/03/21 05:36:02;;;;;;;21.38;11.23;;;;;;;4.54;48.24;101927.41;8596584;33;20165;-72
2022/03/21 05:41:05;;;;;;;18.92;11.63;;;;;;;4.53;48.45;101925.69;8612589;33;20136;-72
2022/03/21 05:46:09;;;;;;;21.05;11.60;;;;;;;4.44;48.24;101925.94;8602096;33;20143;-73
2022/03/21 05:51:13;;;;;;;18.00;11.73;;;;;;;4.46;48.66;101934.75;8599248;33;20484;-74
2022/03/21 05:56:16;;;;;;;20.10;12.10;;;;;;;4.48;48.72;101942.72;8596084;33;20183;-74
2022/03/21 06:01:22;;;;;;;20.73;12.13;;;;;;;4.46;48.61;101948.06;8601089;33;20466;-74
2022/03/21 06:06:26;;;;;;;22.58;12.13;;;;;;;4.53;48.35;101951.44;8597619;33;20147;-74
2022/03/21 06:11:29;;;;;;;20.48;12.15;;;;;;;4.61;48.16;101952.94;8594901;33;20189;-74
2022/03/21 06:16:33;;;;;;;20.42;11.65;;;;;;;4.76;47.69;101964.00;8593063;33;21518;-74
2022/03/21 06:21:37;;;;;;;21.38;12.55;;;;;;;4.77;47.45;101960.41;8593110;33;20487;-74
2022/03/21 06:26:40;;;;;;;20.65;11.73;;;;;;;4.98;47.12;101970.38;8592820;33;20143;-74
2022/03/21 06:31:44;;;;;;;21.20;12.80;;;;;;;5.03;46.34;101973.81;8595393;33;21575;-74
2022/03/21 06:36:48;;;;;;;17.92;11.48;;;;;;;5.28;45.89;101973.88;8589763;33;20539;-74
2022/03/21 06:41:51;;;;;;;20.83;12.07;;;;;;;5.46;45.86;101975.06;8587174;33;20194;-74
2022/03/21 06:46:57;;;;;;;15.30;10.88;;;;;;;5.63;46.01;101984.25;8591298;33;20221;-73
2022/03/21 06:52:02;;;;;;;20.90;12.13;;;;;;;5.90;44.94;101988.63;8601478;33;20147;-74
2022/03/21 06:57:06;;;;;;;20.55;11.20;;;;;;;6.39;44.17;101999.28;8605602;33;20413;-73
2022/03/21 07:02:10;;;;;;;20.48;11.50;;;;;;;6.68;43.84;101986.59;8615794;33;20521;-74
2022/03/21 07:07:14;;;;;;;21.30;13.32;;;;;;;6.78;43.40;101999.53;8605984;33;20158;-74
2022/03/21 07:12:18;;;;;;;21.33;11.40;;;;;;;7.16;43.06;102005.16;8601362;33;20147;-73
2022/03/21 07:17:23;;;;;;;18.35;12.10;;;;;;;7.20;42.70;102013.91;8598115;33;20462;-73
2022/03/21 07:22:26;;;;;;;19.45;11.55;;;;;;;7.40;42.77;102010.41;8598783;33;20585;-73
2022/03/21 07:27:29;;;;;;;19.85;12.00;;;;;;;7.50;42.21;102018.00;8597878;33;20519;-72
2022/03/21 07:32:34;;;;;;;21.55;12.75;;;;;;;7.44;42.14;102009.38;8597427;33;20449;-73
2022/03/21 07:37:41;;;;;;;20.77;13.35;;;;;;;7.65;41.97;102029.84;8583805;33;20437;-72
2022/03/21 07:42:46;;;;;;;27.50;13.38;;;;;;;7.69;41.28;102019.88;8524706;33;20906;-74
2022/03/21 07:47:51;;;;;;;22.88;12.75;;;;;;;8.04;41.50;102018.34;8524952;33;20853;-73
2022/03/21 07:52:56;;;;;;;19.17;12.02;;;;;;;8.35;41.75;102014.28;8526250;33;20501;-73
2022/03/21 07:58:01;;;;;;;20.67;12.93;;;;;;;8.57;41.17;102011.50;8526452;33;20499;-73
2022/03/21 08:03:07;;;;;;;21.02;12.20;;;;;;;8.99;40.74;102016.63;8525764;33;20456;-73
2022/03/21 08:08:10;;;;;;;20.98;12.30;;;;;;;9.21;40.13;102026.31;8523236;33;20404;-73
2022/03/21 08:13:16;;;;;;;23.27;12.77;;;;;;;9.66;39.42;102027.63;8526780;33;20550;-73
2022/03/21 08:18:20;;;;;;;19.85;13.43;;;;;;;9.47;39.41;102028.56;8527118;33;20933;-73
2022/03/21 08:23:24;;;;;;;18.80;13.18;;;;;;;9.47;38.86;102025.88;8525487;33;20465;-73
2022/03/21 08:28:27;;;;;;;20.35;13.35;;;;;;;10.07;38.66;102024.66;8524567;33;20150;-73
2022/03/21 08:33:31;;;;;;;21.75;14.05;;;;;;;10.35;38.30;102022.19;8524813;33;20403;-72
2022/03/21 08:38:34;;;;;;;20.63;12.73;;;;;;;10.60;37.38;102028.94;8523905;33;20406;-73
2022/03/21 08:43:37;;;;;;;20.27;12.88;;;;;;;10.86;37.69;102013.16;8524607;33;20458;-73
2022/03/21 08:54:23;;;;;;;23.15;13.52;;;;;;;11.92;36.88;102011.38;8525835;33;20131;-73
2022/03/21 08:59:26;;;;;;;23.05;13.98;;;;;;;12.41;36.43;102003.97;8524808;33;21932;-72
2022/03/21 09:04:31;;;;;;;20.55;13.05;;;;;;;12.33;34.92;102001.75;8524109;33;20456;-72
2022/03/21 09:09:34;;;;;;;18.45;12.70;;;;;;;12.47;35.49;101998.19;8523504;33;20382;-73
2022/03/21 09:14:38;;;;;;;21.85;14.43;;;;;;;12.41;35.12;101995.88;8523448;33;20327;-72
2022/03/21 09:19:43;;;;;;;22.70;14.15;;;;;;;12.81;34.28;101988.81;8523767;33;20346;-72
2022/03/21 09:24:46;;;;;;;19.80;13.18;;;;;;;13.07;34.48;101987.06;8523831;33;20386;-73
2022/03/21 09:29:49;;;;;;;19.27;13.93;;;;;;;13.19;34.38;101988.06;8522825;33;20426;-72
2022/03/21 09:34:54;;;;;;;24.63;14.27;;;;;;;13.35;35.25;101987.91;8522718;33;20385;-72
2022/03/21 09:39:57;;;;;;;25.35;14.55;;;;;;;13.71;34.76;101981.88;8519012;33;20447;-71
2022/03/21 09:45:02;;;;;;;23.10;14.20;;;;;;;14.29;33.12;101983.19;8523788;33;20383;-73
2022/03/21 09:50:09;;;;;;;19.60;13.00;;;;;;;14.24;33.25;101979.94;8524233;33;20627;-72
2022/03/21 09:55:13;;;;;;;21.25;13.40;;;;;;;14.32;33.49;101977.56;8499387;33;20357;-72
2022/03/21 10:00:16;;;;;;;20.35;13.63;;;;;;;14.57;33.16;101978.53;8523382;33;20476;-72
2022/03/21 10:05:38;;;;;;;22.42;14.18;;;;;;;14.92;32.87;101980.44;8522094;33;20411;-72
2022/03/21 10:10:52;;;;;;;22.58;14.57;;;;;;;15.02;33.32;101976.09;8523358;33;20862;-72
2022/03/21 10:16:12;;;;;;;23.80;14.55;;;;;;;15.73;32.26;101978.88;8519056;33;20403;-72
2022/03/21 10:21:17;;;;;;;25.13;14.75;;;;;;;15.93;32.54;101972.72;8520489;33;20452;-72
2022/03/21 10:26:30;;;;;;;23.35;15.20;;;;;;;16.13;31.48;101972.03;8521972;33;20442;-72
2022/03/21 10:31:39;;;;;;;24.77;14.75;;;;;;;16.05;31.91;101966.34;8520694;33;20872;-73
2022/03/21 10:37:00;;;;;;;21.30;14.60;;;;;;;16.57;30.38;101958.63;8518633;33;20521;-72
2022/03/21 10:42:06;;;;;;;24.10;14.40;;;;;;;16.56;31.13;101957.75;8516390;33;20210;-72
2022/03/21 10:47:09;;;;;;;21.73;13.82;;;;;;;17.00;31.64;101968.59;8522091;33;20525;-72
2022/03/21 10:52:18;;;;;;;21.80;14.10;;;;;;;17.45;30.38;101968.47;8524068;33;20409;-73
2022/03/21 10:57:32;;;;;;;22.58;15.13;;;;;;;17.46;29.99;101965.63;8524321;33;20503;-73
2022/03/21 11:02:35;;;;;;;22.08;15.00;;;;;;;17.60;29.81;101963.56;8523259;33;20439;-72
2022/03/21 11:07:40;;;;;;;22.75;14.48;;;;;;;17.99;29.16;101956.56;8527509;33;20638;-73
2022/03/21 11:12:45;;;;;;;22.50;14.88;;;;;;;18.69;29.14;101953.97;8524112;33;20417;-70
2022/03/21 11:17:48;;;;;;;21.20;14.52;;;;;;;18.60;29.19;101952.94;8524918;33;20457;-71
2022/03/21 11:22:55;;;;;;;22.83;14.70;;;;;;;19.23;29.07;101949.91;8549518;33;20179;-71
2022/03/21 11:28:29;;;;;;;20.95;15.20;;;;;;;19.77;27.92;101950.28;8600231;33;20163;-71
2022/03/21 11:33:40;;;;;;;26.92;16.38;;;;;;;20.19;26.43;101942.56;8609351;33;21259;-71
2022/03/21 11:38:46;;;;;;;23.25;15.75;;;;;;;20.37;26.04;101942.63;8618786;33;20207;-72
2022/03/21 11:44:14;;;;;;;25.17;16.13;;;;;;;20.90;25.49;101933.72;8618899;33;20212;-72
2022/03/21 11:49:44;;;;;;;23.98;15.93;;;;;;;21.30;26.06;101932.41;8619591;33;20155;-72
2022/03/21 11:54:48;;;;;;;24.67;17.73;;;;;;;21.54;26.10;101930.88;8628176;33;20349;-72
2022/03/21 12:00:02;;;;;;;23.95;15.23;;;;;;;21.74;24.82;101931.53;8617686;33;20434;-73
2022/03/21 12:05:06;;;;;;;24.98;16.35;;;;;;;21.66;25.32;101927.72;8606342;33;20996;-74
2022/03/21 12:10:11;;;;;;;25.00;16.70;;;;;;;22.06;25.17;101922.69;8616895;33;20574;-73
2022/03/21 12:15:16;;;;;;;26.13;16.40;;;;;;;22.59;24.67;101905.13;8604241;33;20559;-74
2022/03/21 12:20:21;;;;;;;27.13;16.67;;;;;;;22.08;24.87;101907.00;8605421;33;20185;-72
2022/03/21 12:25:48;;;;;;;24.88;16.45;;;;;;;22.23;25.10;101904.47;8604854;33;20154;-72
2022/03/21 12:30:52;;;;;;;22.10;16.13;;;;;;;22.36;25.09;101909.50;8600617;33;20507;-72
2022/03/21 12:36:06;;;;;;;22.42;16.40;;;;;;;22.99;23.73;101906.25;8600827;33;20420;-72
2022/03/21 12:41:13;;;;;;;24.10;17.33;;;;;;;22.53;24.09;101897.59;8600141;33;20151;-73
2022/03/21 12:46:20;;;;;;;23.58;16.42;;;;;;;22.02;24.79;101894.81;8600356;33;20394;-73
2022/03/21 12:51:33;;;;;;;22.40;15.70;;;;;;;20.60;26.39;101899.44;8599932;33;20541;-72
2022/03/21 12:57:07;;;;;;;26.02;16.98;;;;;;;19.71;27.80;101894.50;8595542;33;20624;-72
2022/03/21 13:02:24;;;;;;;25.27;15.70;;;;;;;19.82;28.74;101893.44;8601258;33;20438;-71
2022/03/21 13:12:58;;;;;;;24.97;17.13;;;;;;;21.46;26.22;101890.66;8599669;33;20464;-72
2022/03/21 13:18:03;;;;;;;24.85;16.50;;;;;;;22.53;25.16;101883.91;8601129;33;20546;-72
2022/03/21 13:23:06;;;;;;;27.67;16.70;;;;;;;23.00;24.86;101877.81;8600782;33;20186;-72
2022/03/21 13:28:21;;;;;;;24.60;17.40;;;;;;;24.26;23.85;101877.25;8596809;33;20647;-72
2022/03/21 13:33:26;;;;;;;27.15;17.20;;;;;;;25.34;22.69;101876.38;8596606;33;20441;-72
2022/03/21 13:38:34;;;;;;;24.30;16.65;;;;;;;26.07;22.23;101867.34;8590433;33;20190;-72
2022/03/21 13:43:38;;;;;;;23.30;17.00;;;;;;;26.55;22.07;101866.03;8589174;33;20712;-73
2022/03/21 13:48:43;;;;;;;28.35;16.73;;;;;;;25.98;22.40;101859.38;8588508;33;20450;-73
2022/03/21 13:53:48;;;;;;;23.85;17.33;;;;;;;25.37;22.51;101859.53;8592351;33;21855;-72
2022/03/21 13:59:08;;;;;;;22.17;16.38;;;;;;;25.85;22.61;101858.16;8596415;33;20427;-72
2022/03/21 14:04:22;;;;;;;24.98;17.65;;;;;;;25.72;22.58;101852.44;8573246;33;20239;-74
2022/03/21 14:09:26;;;;;;;24.42;16.55;;;;;;;25.29;23.05;101843.09;8599869;33;20408;-73
2022/03/21 14:14:30;;;;;;;23.52;17.10;;;;;;;25.55;22.25;101850.91;8600232;33;20316;-72
2022/03/21 14:19:34;;;;;;;24.27;16.95;;;;;;;25.39;23.16;101852.75;8600409;33;20984;-71
2022/03/21 14:24:38;;;;;;;28.13;17.92;;;;;;;25.89;22.64;101844.00;8599134;33;20179;-72
2022/03/21 14:29:42;;;;;;;25.98;17.55;;;;;;;25.26;22.59;101841.59;8598858;33;20246;-72
2022/03/21 14:34:45;;;;;;;27.55;17.98;;;;;;;24.75;23.14;101842.13;8601039;33;21255;-72
2022/03/21 14:39:48;;;;;;;24.33;16.90;;;;;;;24.90;23.45;101838.59;8605442;33;20878;-72
2022/03/21 14:44:53;;;;;;;24.23;17.05;;;;;;;24.40;23.61;101835.34;8600245;33;20523;-72
2022/03/21 14:49:56;;;;;;;26.10;16.60;;;;;;;22.74;25.25;101836.88;8600428;33;20200;-72
2022/03/21 14:55:00;;;;;;;26.23;17.67;;;;;;;22.31;26.00;101836.94;8599268;33;20515;-72
2022/03/21 15:00:06;;;;;;;26.20;17.73;;;;;;;21.69;26.25;101836.28;8601151;33;20158;-72
2022/03/21 15:05:10;;;;;;;24.35;16.13;;;;;;;22.01;26.45;101835.63;8603006;33;20907;-72
2022/03/21 15:10:23;;;;;;;27.08;18.08;;;;;;;22.23;25.91;101839.63;8608800;33;20179;-72
2022/03/21 15:15:30;;;;;;;27.85;16.70;;;;;;;21.77;26.75;101833.63;8619158;33;20835;-72
2022/03/21 15:20:33;;;;;;;27.35;16.90;;;;;;;21.60;27.24;101826.34;8616809;33;20151;-72
2022/03/21 15:25:38;;;;;;;27.48;18.10;;;;;;;21.47;27.08;101824.03;8617449;33;20451;-72
2022/03/21 15:30:45;;;;;;;26.60;17.70;;;;;;;20.94;27.64;101830.47;8620811;33;21967;-72
2022/03/21 15:35:49;;;;;;;24.58;17.08;;;;;;;20.66;27.90;101827.81;8624758;33;20158;-72
2022/03/21 15:46:14;;;;;;;27.25;17.50;;;;;;;20.04;28.51;101821.31;8623696;33;20986;-72
2022/03/21 15:51:17;;;;;;;29.23;16.20;;;;;;;19.97;28.30;101822.94;8619297;33;20278;-72
2022/03/21 15:56:20;;;;;;;24.15;16.20;;;;;;;19.65;28.23;101821.50;8619052;33;20404;-72
2022/03/21 16:01:25;;;;;;;22.73;15.40;;;;;;;19.62;29.10;101817.19;8618908;33;20463;-72
2022/03/21 16:06:28;;;;;;;25.30;15.90;;;;;;;19.43;28.84;101818.09;8605585;33;20410;-71
2022/03/21 16:11:31;;;;;;;23.80;15.87;;;;;;;19.30;29.00;101817.53;8615825;33;20410;-72
2022/03/21 16:16:37;;;;;;;26.02;17.05;;;;;;;18.93;29.32;101822.91;8609959;33;20220;-72
2022/03/21 16:21:40;;;;;;;25.08;16.10;;;;;;;18.71;30.30;101822.19;8604798;33;20186;-72
2022/03/21 16:26:44;;;;;;;24.67;16.15;;;;;;;18.41;30.68;101819.56;8601979;33;21707;-72
2022/03/21 16:31:49;;;;;;;26.73;15.40;;;;;;;18.24;31.37;101824.69;8614444;33;20451;-72
2022/03/21 16:36:52;;;;;;;29.23;16.35;;;;;;;17.85;31.81;101826.38;8614227;33;20143;-71
2022/03/21 16:41:55;;;;;;;26.67;16.02;;;;;;;17.44;32.24;101826.38;8597052;33;20496;-71
2022/03/21 16:47:00;;;;;;;27.65;15.88;;;;;;;17.18;32.54;101825.91;8599337;33;20900;-71
2022/03/21 16:52:10;;;;;;;27.25;16.00;;;;;;;16.91;33.13;101830.97;8596447;33;20197;-72
2022/03/21 16:57:14;;;;;;;25.02;16.08;;;;;;;16.69;33.57;101830.06;8599888;33;20459;-72
2022/03/21 17:02:19;;;;;;;26.33;15.82;;;;;;;16.51;33.48;101832.50;8600154;33;20444;-71
2022/03/21 17:07:23;;;;;;;25.77;14.68;;;;;;;16.22;34.11;101829.44;8600401;33;20501;-71
2022/03/21 17:12:26;;;;;;;25.75;15.35;;;;;;;16.02;34.42;101830.22;8600491;33;20156;-72
2022/03/21 17:17:30;;;;;;;26.65;15.07;;;;;;;15.74;34.82;101834.28;8597769;33;20147;-71
2022/03/21 17:27:54;;;;;;;24.17;14.93;;;;;;;15.26;35.20;101835.31;8573062;33;20170;-71
2022/03/21 17:32:59;;;;;;;24.27;14.30;;;;;;;15.02;35.79;101841.63;8598281;33;20151;-71
2022/03/21 17:38:02;;;;;;;22.02;14.93;;;;;;;14.78;36.16;101841.69;8597656;33;20277;-71
2022/03/21 17:43:07;;;;;;;25.67;16.05;;;;;;;14.55;36.37;101850.66;8599224;33;20862;-72
2022/03/21 17:48:12;;;;;;;24.48;15.95;;;;;;;14.38;36.58;101850.06;8608061;33;20780;-72
2022/03/21 17:53:30;;;;;;;28.25;17.58;;;;;;;14.25;36.89;101851.06;8607192;33;20466;-72
2022/03/21 17:58:34;;;;;;;25.75;16.73;;;;;;;14.04;37.44;101857.09;8602075;33;20281;-73
2022/03/21 18:03:39;;;;;;;32.40;17.40;;;;;;;13.88;37.03;101856.47;8603255;33;20518;-70
2022/03/21 18:08:44;;;;;;;26.13;15.77;;;;;;;13.75;37.26;101858.31;8594758;33;20174;-72
2022/03/21 18:13:47;;;;;;;28.42;16.38;;;;;;;13.68;37.32;101872.22;8596169;33;21101;-72
2022/03/21 18:18:56;;;;;;;28.98;16.45;;;;;;;13.59;37.78;101869.31;8593925;33;20877;-72
2022/03/21 18:24:01;;;;;;;29.52;17.45;;;;;;;13.45;38.02;101879.25;8599531;33;20906;-73
2022/03/21 18:29:05;;;;;;;30.52;16.27;;;;;;;13.30;37.80;101872.16;8602656;33;20603;-72
2022/03/21 18:34:10;;;;;;;31.05;17.17;;;;;;;13.14;38.56;101888.56;8599228;33;20922;-73
2022/03/21 18:39:14;;;;;;;30.55;17.00;;;;;;;13.00;38.47;101884.13;8599847;33;20454;-71
2022/03/21 18:44:17;;;;;;;28.00;15.50;;;;;;;12.85;38.96;101901.31;8606499;33;20624;-72
2022/03/21 18:49:22;;;;;;;30.17;16.60;;;;;;;12.78;39.27;101908.06;8583767;33;20425;-72
2022/03/21 18:54:25;;;;;;;24.55;15.60;;;;;;;12.65;39.24;101905.34;8608743;33;20440;-72
2022/03/21 18:59:28;;;;;;;28.23;16.25;;;;;;;12.57;39.66;101908.53;8619825;33;20412;-72
2022/03/21 19:04:33;;;;;;;27.45;16.90;;;;;;;12.54;39.91;101913.28;8619489;33;20435;-72
2022/03/21 19:09:37;;;;;;;33.38;17.40;;;;;;;12.41;40.13;101915.88;8617388;33;20200;-73
2022/03/21 19:14:40;;;;;;;29.50;15.68;;;;;;;12.29;40.33;101912.16;8621928;33;20472;-73
2022/03/21 19:19:45;;;;;;;31.25;17.73;;;;;;;12.12;40.48;101909.63;8624734;33;20527;-73
2022/03/21 19:24:48;;;;;;;31.88;18.10;;;;;;;12.14;40.55;101907.72;8624459;33;20144;-73
2022/03/21 19:29:51;;;;;;;31.55;18.05;;;;;;;12.03;40.67;101924.53;8618583;33;20212;-72
2022/03/21 19:34:55;;;;;;;28.75;16.95;;;;;;;12.01;41.03;101920.22;8619864;33;20197;-73
2022/03/21 19:39:59;;;;;;;29.10;17.35;;;;;;;11.87;41.44;101921.94;8618254;33;20517;-73
2022/03/21 19:45:02;;;;;;;32.88;17.73;;;;;;;11.69;41.84;101934.72;8616253;33;20131;-72
2022/03/21 19:50:07;;;;;;;30.10;17.20;;;;;;;11.57;41.99;101939.97;8605686;33;22535;-72
2022/03/21 19:55:17;;;;;;;36.78;19.23;;;;;;;11.52;41.64;101931.31;8600930;33;20405;-72
2022/03/21 20:00:23;;;;;;;29.70;18.45;;;;;;;11.41;41.98;101940.94;8604729;33;21994;-72
2022/03/21 20:05:28;;;;;;;34.83;18.92;;;;;;;11.42;41.77;101942.66;8606420;33;20474;-73
2022/03/21 20:10:31;;;;;;;36.00;17.80;;;;;;;11.31;42.02;101942.44;8605501;33;20683;-72
2022/03/21 20:15:38;;;;;;;29.75;17.40;;;;;;;11.22;41.94;101945.69;8603699;33;20467;-72
2022/03/21 20:20:43;;;;;;;26.63;16.45;;;;;;;11.22;41.99;101949.22;8602987;33;20155;-73
2022/03/21 20:25:46;;;;;;;31.73;17.88;;;;;;;11.02;42.42;101941.41;8604569;33;20620;-72
2022/03/21 20:30:49;;;;;;;32.83;17.27;;;;;;;10.97;42.48;101947.06;8580032;33;20445;-73
2022/03/21 20:35:53;;;;;;;28.58;18.35;;;;;;;10.89;41.95;101940.38;8604230;33;20489;-72
2022/03/21 20:40:57;;;;;;;28.80;16.85;;;;;;;10.83;42.12;101950.56;8603724;33;20434;-73
2022/03/21 20:46:00;;;;;;;25.75;16.80;;;;;;;10.71;42.24;101950.38;8604992;33;20177;-73
2022/03/21 20:51:05;;;;;;;29.50;16.92;;;;;;;10.67;42.46;101957.75;8604264;33;20589;-72
2022/03/21 20:56:08;;;;;;;29.58;16.48;;;;;;;10.66;42.95;101961.38;8604538;33;20208;-74
2022/03/21 21:01:11;;;;;;;31.27;18.08;;;;;;;10.52;42.80;101958.63;8599166;33;20409;-73
2022/03/21 21:06:16;;;;;;;31.75;17.35;;;;;;;10.45;42.96;101957.22;8597104;33;21939;-73
2022/03/21 21:11:19;;;;;;;32.10;17.85;;;;;;;10.41;43.20;101963.72;8579524;33;20201;-73
2022/03/21 21:16:22;;;;;;;31.80;17.58;;;;;;;10.25;43.14;101964.56;8596316;33;20174;-72
2022/03/21 21:21:26;;;;;;;28.05;16.95;;;;;;;10.19;43.27;101964.91;8596836;33;20147;-72
2022/03/21 21:26:30;;;;;;;32.25;17.30;;;;;;;10.17;43.27;101964.09;8574799;33;20402;-73
2022/03/21 21:31:34;;;;;;;26.63;16.80;;;;;;;10.16;43.03;101968.63;8600010;33;20143;-72
2022/03/21 21:36:39;;;;;;;26.98;16.40;;;;;;;10.04;43.16;101963.03;8601312;33;20177;-73
2022/03/21 21:41:43;;;;;;;29.40;17.00;;;;;;;10.06;42.95;101978.09;8602452;33;20399;-72
2022/03/21 21:46:46;;;;;;;30.88;16.50;;;;;;;10.00;43.01;101975.75;8617063;33;20927;-72
2022/03/21 21:51:51;;;;;;;28.25;16.95;;;;;;;9.93;43.46;101974.38;8624077;33;20409;-74
2022/03/21 21:56:55;;;;;;;22.77;15.75;;;;;;;9.77;43.54;101971.59;8607731;33;20425;-72
2022/03/21 22:01:59;;;;;;;25.70;16.55;;;;;;;9.73;43.56;101978.03;8599966;33;20522;-73
2022/03/21 22:07:04;;;;;;;29.85;16.55;;;;;;;9.64;43.45;101976.72;8601884;33;20242;-72
2022/03/21 22:12:09;;;;;;;29.05;16.70;;;;;;;9.62;43.04;101975.91;8597289;33;20429;-73
2022/03/21 22:17:13;;;;;;;28.50;16.10;;;;;;;9.57;43.14;101978.00;8570001;33;20412;-72
2022/03/21 22:22:21;;;;;;;28.45;16.95;;;;;;;9.61;42.63;101976.88;8601280;33;20147;-72
2022/03/21 22:27:25;;;;;;;28.67;16.17;;;;;;;9.51;43.00;101975.59;8566651;33;20424;-72
2022/03/21 22:32:28;;;;;;;28.38;15.65;;;;;;;9.43;42.95;101984.03;8596275;33;20226;-72
2022/03/21 22:37:33;;;;;;;30.40;16.23;;;;;;;9.39;42.95;101982.47;8596176;33;20919;-72
2022/03/21 22:47:57;;;;;;;26.45;15.98;;;;;;;9.32;43.40;101980.19;8592714;33;20402;-72
2022/03/21 22:53:01;;;;;;;28.45;16.90;;;;;;;9.21;43.28;101978.91;8601259;33;20147;-72
2022/03/21 22:58:04;;;;;;;22.80;14.77;;;;;;;9.23;42.95;101981.50;8598947;33;20456;-72
2022/03/21 23:03:08;;;;;;;28.00;16.02;;;;;;;9.16;43.36;101983.66;8600044;33;20471;-73
2022/03/21 23:08:14;;;;;;;26.40;15.02;;;;;;;9.12;43.12;101984.72;8599700;33;20428;-72
2022/03/21 23:13:17;;;;;;;24.77;15.18;;;;;;;9.10;43.22;101975.88;8601388;33;20643;-72
2022/03/21 23:18:22;;;;;;;32.67;16.90;;;;;;;9.07;43.42;101981.41;8599820;33;20433;-73
2022/03/21 23:23:27;;;;;;;29.02;16.40;;;;;;;8.98;43.48;101985.41;8601229;33;20178;-73
2022/03/21 23:28:30;;;;;;;25.17;16.15;;;;;;;8.92;43.84;101985.72;8602140;33;20169;-71
2022/03/21 23:33:33;;;;;;;28.17;16.27;;;;;;;8.79;43.71;101985.44;8606984;33;20541;-73
2022/03/21 23:38:37;;;;;;;29.10;16.13;;;;;;;8.68;43.84;101995.78;8605405;33;20710;-73
2022/03/21 23:43:41;;;;;;;30.02;16.52;;;;;;;8.65;44.06;101995.09;8606257;33;20426;-73